Time;durP1;ratioP1;P1;durP2;ratioP2;P2;SDS_P1;SDS_P2;PMS_P1;PMS_P2;Temp;Humidity;BMP_temperature;BMP_pressure;BME280_temperature;BME280_humidity;BME280_pressure;Samples;Min_cycle;Max_cycle;Signal;HPM_P1;HPM_P2
2023/11/23 00:02:32;;;;;;;14.90;13.60;;;4.40;99.90;;;;;;10335727;28;20231;-77
2023/11/23 00:07:35;;;;;;;14.50;13.10;;;4.40;99.90;;;;;;10355952;28;20226;-77
2023/11/23 00:12:40;;;;;;;15.40;13.90;;;4.40;99.90;;;;;;10360493;28;20727;-75
2023/11/23 00:17:43;;;;;;;15.50;14.00;;;4.30;99.90;;;;;;10346726;28;20762;-77
2023/11/23 00:22:46;;;;;;;14.87;13.33;;;4.30;99.90;;;;;;10351117;28;20230;-78
2023/11/23 00:27:50;;;;;;;15.37;13.97;;;4.30;99.90;;;;;;10342652;28;20230;-78
2023/11/23 00:32:52;;;;;;;15.73;14.23;;;4.20;99.90;;;;;;10322350;28;20223;-77
2023/11/23 00:37:55;;;;;;;16.53;15.03;;;4.10;99.90;;;;;;10347164;28;20199;-78
2023/11/23 00:42:58;;;;;;;18.17;16.50;;;4.00;99.90;;;;;;10341220;28;20234;-76
2023/11/23 00:48:02;;;;;;;15.90;14.10;;;3.90;99.90;;;;;;10359224;28;20589;-78
2023/11/23 00:53:04;;;;;;;18.60;16.83;;;3.90;99.90;;;;;;10343857;28;20694;-78
2023/11/23 00:58:08;;;;;;;17.10;15.50;;;3.90;99.90;;;;;;10354678;28;20662;-78
2023/11/23 01:03:11;;;;;;;17.30;15.60;;;4.00;99.90;;;;;;10341046;28;20219;-78
2023/11/23 01:08:14;;;;;;;16.70;15.13;;;4.10;99.90;;;;;;10340705;28;20211;-78
2023/11/23 01:13:18;;;;;;;15.93;14.43;;;4.20;99.90;;;;;;10357676;28;20617;-78
2023/11/23 01:18:21;;;;;;;16.70;15.10;;;4.30;99.90;;;;;;10341906;28;20204;-78
2023/11/23 01:23:24;;;;;;;17.07;15.43;;;4.30;99.90;;;;;;10360699;28;20220;-78
2023/11/23 01:28:27;;;;;;;17.60;16.00;;;4.30;99.90;;;;;;10362150;28;20208;-78
2023/11/23 01:33:30;;;;;;;18.00;16.27;;;4.40;99.90;;;;;;10338146;28;20297;-78
2023/11/23 01:38:33;;;;;;;17.63;16.03;;;4.40;99.90;;;;;;10365176;28;20200;-78
2023/11/23 01:43:37;;;;;;;16.80;15.20;;;4.50;99.90;;;;;;10367373;28;20228;-78
2023/11/23 01:48:41;;;;;;;16.10;14.60;;;4.50;99.90;;;;;;10361858;28;20206;-78
2023/11/23 01:53:44;;;;;;;14.23;12.87;;;4.50;99.90;;;;;;10345137;28;20231;-78
2023/11/23 01:58:48;;;;;;;16.87;15.37;;;4.50;99.90;;;;;;10350560;28;20207;-77
2023/11/23 02:03:52;;;;;;;15.90;14.47;;;4.50;99.90;;;;;;10347600;28;20223;-78
2023/11/23 02:08:54;;;;;;;15.53;14.07;;;4.60;99.90;;;;;;10342261;28;20198;-78
2023/11/23 02:13:58;;;;;;;17.83;16.13;;;4.60;99.90;;;;;;10323225;28;20221;-77
2023/11/23 02:19:01;;;;;;;17.43;15.83;;;4.60;99.90;;;;;;10326616;28;20738;-78
2023/11/23 02:24:08;;;;;;;17.17;15.47;;;4.60;99.90;;;;;;10345690;28;20586;-78
2023/11/23 02:29:11;;;;;;;17.60;16.00;;;4.60;99.90;;;;;;10328365;28;20198;-78
2023/11/23 02:34:13;;;;;;;18.40;16.60;;;4.60;99.90;;;;;;10330241;28;20202;-78
2023/11/23 02:39:17;;;;;;;16.57;14.97;;;4.60;99.90;;;;;;10346950;28;20672;-77
2023/11/23 02:44:19;;;;;;;18.10;16.20;;;4.70;99.90;;;;;;10349011;28;20297;-78
2023/11/23 02:49:21;;;;;;;17.73;16.03;;;4.70;99.90;;;;;;10349741;28;20203;-78
2023/11/23 02:54:25;;;;;;;16.37;14.77;;;4.80;99.90;;;;;;10351560;28;20203;-78
2023/11/23 02:59:27;;;;;;;16.30;14.70;;;4.90;99.90;;;;;;10334966;28;20683;-78
2023/11/23 03:04:30;;;;;;;18.17;16.47;;;4.90;99.90;;;;;;10341889;28;20708;-78
2023/11/23 03:09:33;;;;;;;15.33;13.83;;;4.90;99.90;;;;;;10343216;28;20223;-78
2023/11/23 03:14:36;;;;;;;15.37;13.87;;;4.90;99.90;;;;;;10331803;28;20231;-78
2023/11/23 03:19:38;;;;;;;14.93;13.50;;;4.90;99.90;;;;;;10351141;28;20219;-78
2023/11/23 03:24:42;;;;;;;15.83;14.33;;;4.90;99.90;;;;;;10357734;28;20223;-77
2023/11/23 03:29:44;;;;;;;15.10;13.33;;;4.90;99.90;;;;;;10346047;28;20227;-78
2023/11/23 03:34:47;;;;;;;14.20;12.90;;;4.90;99.90;;;;;;10339280;28;20207;-78
2023/11/23 03:39:50;;;;;;;15.03;13.43;;;4.90;99.90;;;;;;10340778;28;20219;-78
2023/11/23 03:44:53;;;;;;;21.00;18.87;;;4.90;99.90;;;;;;10338907;28;20222;-78
2023/11/23 03:49:55;;;;;;;13.13;11.97;;;4.90;99.90;;;;;;10339653;28;20306;-78
2023/11/23 03:54:59;;;;;;;13.90;11.50;;;4.80;99.90;;;;;;10335217;28;20626;-78
2023/11/23 04:00:02;;;;;;;12.30;11.20;;;4.80;99.90;;;;;;10337203;28;20222;-77
2023/11/23 04:05:08;;;;;;;13.13;11.90;;;4.80;99.90;;;;;;10344605;28;20217;-79
2023/11/23 04:10:12;;;;;;;13.03;11.83;;;4.80;99.90;;;;;;10329467;28;20218;-79
2023/11/23 04:15:16;;;;;;;14.87;13.47;;;4.80;99.90;;;;;;10336759;28;20202;-79
2023/11/23 04:20:18;;;;;;;15.03;13.03;;;4.70;99.90;;;;;;10332975;28;20336;-79
2023/11/23 04:25:22;;;;;;;14.10;12.80;;;4.70;99.90;;;;;;10343600;28;20214;-79
2023/11/23 04:30:24;;;;;;;14.87;13.27;;;4.70;99.90;;;;;;10340677;28;20668;-78
2023/11/23 04:35:27;;;;;;;15.20;13.70;;;4.80;99.90;;;;;;10353337;28;20209;-78
2023/11/23 04:40:31;;;;;;;14.47;12.97;;;4.80;99.90;;;;;;10356357;28;20281;-79
2023/11/23 04:45:34;;;;;;;13.40;12.10;;;4.80;99.90;;;;;;10350413;28;20276;-79
2023/11/23 04:50:37;;;;;;;15.77;14.17;;;4.80;99.90;;;;;;10349665;28;20230;-79
2023/11/23 04:55:41;;;;;;;14.03;12.53;;;4.80;99.90;;;;;;10346941;28;20195;-79
2023/11/23 05:00:43;;;;;;;13.33;12.10;;;4.80;99.90;;;;;;10338451;28;20235;-78
2023/11/23 05:05:46;;;;;;;12.30;11.10;;;4.80;99.90;;;;;;10338349;28;20469;-79
2023/11/23 05:10:50;;;;;;;13.30;12.10;;;4.80;99.90;;;;;;10339706;28;20245;-79
2023/11/23 05:15:52;;;;;;;11.97;10.83;;;4.80;99.90;;;;;;10356587;28;20642;-79
2023/11/23 05:20:54;;;;;;;10.90;9.90;;;4.80;99.90;;;;;;10355589;28;20227;-79
2023/11/23 05:25:58;;;;;;;11.00;9.97;;;4.80;99.90;;;;;;10360180;28;20234;-78
2023/11/23 05:31:00;;;;;;;13.10;11.80;;;4.70;99.90;;;;;;10360778;28;20623;-78
2023/11/23 05:36:03;;;;;;;11.60;10.40;;;4.70;99.90;;;;;;10337299;28;20204;-79
2023/11/23 05:41:07;;;;;;;10.03;9.13;;;4.60;99.90;;;;;;10341867;28;20226;-78
2023/11/23 05:46:09;;;;;;;9.07;8.27;;;4.50;99.90;;;;;;10331834;28;20230;-78
2023/11/23 05:51:12;;;;;;;9.57;8.77;;;4.50;99.90;;;;;;10332636;28;20231;-78
2023/11/23 05:56:15;;;;;;;11.80;10.00;;;4.50;99.90;;;;;;10328847;28;20536;-77
2023/11/23 06:01:18;;;;;;;10.43;9.43;;;4.50;99.90;;;;;;10356174;28;20219;-76
2023/11/23 06:06:21;;;;;;;11.20;10.10;;;4.60;99.90;;;;;;10367262;28;20640;-77
2023/11/23 06:11:25;;;;;;;10.83;9.73;;;4.70;99.90;;;;;;10333129;28;20637;-78
2023/11/23 06:16:28;;;;;;;10.43;9.43;;;4.70;99.90;;;;;;10355080;28;20203;-77
2023/11/23 06:21:30;;;;;;;12.47;11.27;;;4.80;99.90;;;;;;10368734;28;20280;-78
2023/11/23 06:26:34;;;;;;;18.70;13.07;;;4.80;99.90;;;;;;10361829;28;20640;-78
2023/11/23 06:31:36;;;;;;;12.27;10.90;;;4.80;99.90;;;;;;10359240;28;20238;-77
2023/11/23 06:36:39;;;;;;;11.70;10.53;;;4.80;99.90;;;;;;10365477;28;20199;-78
2023/11/23 06:41:43;;;;;;;9.80;8.80;;;4.80;99.90;;;;;;10359159;28;20222;-78
2023/11/23 06:46:45;;;;;;;11.30;10.20;;;4.80;99.90;;;;;;10369359;28;20677;-78
2023/11/23 06:51:47;;;;;;;13.87;12.47;;;4.70;99.90;;;;;;10335959;28;20654;-78
2023/11/23 06:56:51;;;;;;;10.90;9.80;;;4.60;99.90;;;;;;10348047;28;20691;-78
2023/11/23 07:01:53;;;;;;;13.60;11.90;;;4.50;99.90;;;;;;10371891;28;20219;-77
2023/11/23 07:06:55;;;;;;;9.50;8.60;;;4.40;99.90;;;;;;10376792;28;20218;-78
2023/11/23 07:11:59;;;;;;;10.33;9.43;;;4.30;99.90;;;;;;10368080;28;20206;-78
2023/11/23 07:17:01;;;;;;;11.07;9.93;;;4.30;99.90;;;;;;10335835;28;20202;-78
2023/11/23 07:22:04;;;;;;;8.03;7.30;;;4.30;99.90;;;;;;10333037;28;20629;-78
2023/11/23 07:27:08;;;;;;;7.70;6.97;;;4.30;99.90;;;;;;10353822;28;20226;-78
2023/11/23 07:32:10;;;;;;;7.30;6.40;;;4.50;99.90;;;;;;10341925;28;20222;-78
2023/11/23 07:37:12;;;;;;;8.07;7.27;;;4.50;99.90;;;;;;10336783;28;20226;-78
2023/11/23 07:42:17;;;;;;;5.80;5.30;;;4.60;99.90;;;;;;10337694;28;20289;-78
2023/11/23 07:47:21;;;;;;;6.23;5.73;;;4.70;99.90;;;;;;10335618;28;20234;-78
2023/11/23 07:52:24;;;;;;;5.33;4.93;;;4.70;99.90;;;;;;10337537;28;20270;-78
2023/11/23 07:57:28;;;;;;;5.47;4.90;;;4.90;99.90;;;;;;10338128;28;20210;-78
2023/11/23 08:02:30;;;;;;;5.03;4.63;;;5.00;99.90;;;;;;10340349;28;20242;-78
2023/11/23 08:07:32;;;;;;;5.40;5.00;;;5.10;99.90;;;;;;10330758;28;20223;-78
2023/11/23 08:12:36;;;;;;;5.40;5.00;;;5.30;99.90;;;;;;10323071;28;20227;-78
2023/11/23 08:17:39;;;;;;;5.10;4.70;;;5.40;99.90;;;;;;10350368;28;20203;-78
2023/11/23 08:22:41;;;;;;;5.10;4.67;;;5.60;99.90;;;;;;10343702;28;20231;-77
2023/11/23 08:27:45;;;;;;;5.13;4.73;;;5.80;99.90;;;;;;10359056;28;20223;-78
2023/11/23 08:32:47;;;;;;;6.20;5.60;;;6.00;99.90;;;;;;10335434;28;20261;-78
2023/11/23 08:37:50;;;;;;;5.80;4.37;;;6.20;99.90;;;;;;10342131;28;20195;-78
2023/11/23 08:42:54;;;;;;;4.80;4.40;;;6.40;99.90;;;;;;10337250;28;20289;-78
2023/11/23 08:47:56;;;;;;;5.63;5.13;;;6.60;99.90;;;;;;10342186;28;20254;-77
2023/11/23 08:52:59;;;;;;;5.80;5.20;;;6.70;99.90;;;;;;10342466;28;20289;-78
2023/11/23 08:58:03;;;;;;;4.43;3.93;;;6.90;99.90;;;;;;10351353;28;20206;-78
2023/11/23 09:03:08;;;;;;;4.37;3.97;;;7.10;99.90;;;;;;10358540;28;20219;-78
2023/11/23 09:08:11;;;;;;;4.50;4.10;;;7.20;99.90;;;;;;10346445;28;20601;-78
2023/11/23 09:13:16;;;;;;;4.03;3.73;;;7.30;99.90;;;;;;10372851;28;20603;-79
2023/11/23 09:18:18;;;;;;;5.70;4.10;;;7.50;99.90;;;;;;10353917;28;20528;-78
2023/11/23 09:23:20;;;;;;;4.10;3.70;;;7.60;99.90;;;;;;10351391;28;20219;-78
2023/11/23 09:28:25;;;;;;;4.80;3.93;;;7.60;99.90;;;;;;10332845;28;20727;-78
2023/11/23 09:33:27;;;;;;;4.63;4.23;;;7.70;99.90;;;;;;10334948;28;20720;-78
2023/11/23 09:38:29;;;;;;;3.87;3.57;;;7.70;99.90;;;;;;10372680;28;20207;-78
2023/11/23 09:43:33;;;;;;;6.30;4.00;;;7.80;99.90;;;;;;10351944;28;20219;-78
2023/11/23 09:48:39;;;;;;;5.37;2.90;;;7.90;99.90;;;;;;10344686;28;20223;-79
2023/11/23 09:53:44;;;;;;;5.10;4.60;;;8.00;99.90;;;;;;10336106;28;20615;-78
2023/11/23 09:58:47;;;;;;;3.83;3.53;;;8.10;99.90;;;;;;10355138;28;20203;-79
2023/11/23 10:03:54;;;;;;;4.30;3.90;;;8.20;99.90;;;;;;10338240;28;20230;-79
2023/11/23 10:08:59;;;;;;;4.50;3.27;;;8.30;99.90;;;;;;10368762;28;20220;-78
2023/11/23 10:14:04;;;;;;;4.37;3.97;;;8.40;99.90;;;;;;10353986;28;20264;-78
2023/11/23 10:19:08;;;;;;;4.80;3.43;;;8.40;99.90;;;;;;10355404;28;20238;-78
2023/11/23 10:24:12;;;;;;;3.47;3.17;;;8.50;99.90;;;;;;10357339;28;20759;-78
2023/11/23 10:29:16;;;;;;;5.73;3.90;;;8.50;99.90;;;;;;10358681;28;20231;-78
2023/11/23 10:34:19;;;;;;;3.60;3.30;;;8.60;99.90;;;;;;10353983;28;20199;-76
2023/11/23 10:39:23;;;;;;;3.87;3.60;;;8.60;99.90;;;;;;10348816;28;20198;-76
2023/11/23 10:44:28;;;;;;;4.47;3.90;;;8.50;99.90;;;;;;10341280;28;20203;-77
2023/11/23 10:49:33;;;;;;;4.90;4.47;;;8.50;99.90;;;;;;10346327;28;20285;-76
2023/11/23 10:54:36;;;;;;;4.47;4.07;;;8.50;99.90;;;;;;10334777;28;20210;-78
2023/11/23 10:59:42;;;;;;;3.67;3.37;;;8.50;99.90;;;;;;10343972;28;20215;-76
2023/11/23 11:04:44;;;;;;;3.93;3.70;;;8.50;99.90;;;;;;10343051;28;20709;-77
2023/11/23 11:09:46;;;;;;;4.50;3.87;;;8.40;99.90;;;;;;10316484;28;20285;-77
2023/11/23 11:14:53;;;;;;;3.97;3.70;;;8.40;99.90;;;;;;10349744;28;20199;-78
2023/11/23 11:19:57;;;;;;;4.17;3.83;;;8.40;99.90;;;;;;10351257;28;20219;-78
2023/11/23 11:24:59;;;;;;;4.07;3.63;;;8.50;99.90;;;;;;10341238;28;20195;-78
2023/11/23 11:30:03;;;;;;;4.17;3.87;;;8.60;99.90;;;;;;10336728;28;20245;-78
2023/11/23 11:35:08;;;;;;;4.43;4.13;;;8.80;99.90;;;;;;10353271;28;20195;-78
2023/11/23 11:40:13;;;;;;;4.80;4.40;;;8.90;99.90;;;;;;10335833;28;20222;-78
2023/11/23 11:45:19;;;;;;;4.83;4.43;;;9.10;99.90;;;;;;10334675;28;20207;-78
2023/11/23 11:50:21;;;;;;;4.80;3.90;;;9.10;99.90;;;;;;10314713;28;20293;-78
2023/11/23 11:55:24;;;;;;;4.50;4.10;;;9.10;99.90;;;;;;10339143;28;20198;-78
2023/11/23 12:00:29;;;;;;;3.90;3.60;;;9.20;99.90;;;;;;10360687;28;20223;-78
2023/11/23 12:05:32;;;;;;;3.73;3.43;;;9.30;99.90;;;;;;10369188;28;20206;-77
2023/11/23 12:10:38;;;;;;;5.00;3.20;;;9.30;99.90;;;;;;10356347;28;20226;-77
2023/11/23 12:15:43;;;;;;;3.97;3.13;;;9.30;99.90;;;;;;10354524;28;20202;-78
2023/11/23 12:20:46;;;;;;;3.90;3.60;;;9.40;99.90;;;;;;10362497;28;20273;-78
2023/11/23 12:25:50;;;;;;;3.00;2.80;;;9.40;99.90;;;;;;10336790;28;20209;-78
2023/11/23 12:30:53;;;;;;;2.80;2.60;;;9.40;99.90;;;;;;10352175;28;20309;-78
2023/11/23 12:35:57;;;;;;;3.67;3.37;;;9.50;99.90;;;;;;10362291;28;20577;-78
2023/11/23 12:40:59;;;;;;;3.40;3.17;;;9.60;99.90;;;;;;10366253;28;20214;-78
2023/11/23 12:46:04;;;;;;;3.03;2.47;;;9.60;99.90;;;;;;10330444;28;20199;-78
2023/11/23 12:51:06;;;;;;;5.13;3.77;;;9.60;99.90;;;;;;10365361;28;20230;-77
2023/11/23 12:56:10;;;;;;;3.30;3.00;;;9.70;99.90;;;;;;10349555;28;20238;-78
2023/11/23 13:01:14;;;;;;;3.13;2.90;;;9.80;99.90;;;;;;10360380;28;20243;-78
2023/11/23 13:06:16;;;;;;;3.23;2.93;;;9.80;99.90;;;;;;10349668;28;20196;-78
2023/11/23 13:11:18;;;;;;;3.10;2.90;;;9.90;99.90;;;;;;10344171;28;20238;-78
2023/11/23 13:16:23;;;;;;;3.30;3.10;;;9.80;99.90;;;;;;10349409;28;20215;-78
2023/11/23 13:21:27;;;;;;;3.40;3.10;;;9.80;99.90;;;;;;10346119;28;20293;-78
2023/11/23 13:26:29;;;;;;;4.10;2.87;;;9.80;99.90;;;;;;10347080;28;20199;-78
2023/11/23 13:31:35;;;;;;;2.97;2.87;;;9.80;99.90;;;;;;10346541;28;20219;-77
2023/11/23 13:36:37;;;;;;;4.80;2.23;;;9.80;99.90;;;;;;10314081;28;20195;-78
2023/11/23 13:41:40;;;;;;;5.00;2.57;;;9.90;99.90;;;;;;10328707;28;20738;-77
2023/11/23 13:46:45;;;;;;;2.23;2.13;;;9.90;99.90;;;;;;10330781;28;20229;-78
2023/11/23 13:51:47;;;;;;;3.20;2.47;;;9.90;99.90;;;;;;10348950;28;20222;-78
2023/11/23 13:56:50;;;;;;;2.10;2.00;;;9.90;99.90;;;;;;10350192;28;20277;-78
2023/11/23 14:01:54;;;;;;;2.50;2.30;;;9.90;99.90;;;;;;10355688;28;20229;-78
2023/11/23 14:06:57;;;;;;;1.90;1.80;;;9.90;99.90;;;;;;10355788;28;20218;-78
2023/11/23 14:11:59;;;;;;;3.27;2.00;;;9.90;99.90;;;;;;10354125;28;20296;-79
2023/11/23 14:17:03;;;;;;;1.60;1.50;;;9.90;99.90;;;;;;10355013;28;20195;-78
2023/11/23 14:22:06;;;;;;;1.50;1.47;;;9.90;99.90;;;;;;10355277;28;20703;-77
2023/11/23 14:27:09;;;;;;;1.97;1.87;;;9.90;99.90;;;;;;10351713;28;20205;-78
2023/11/23 14:32:13;;;;;;;1.70;1.60;;;9.90;99.90;;;;;;10365470;28;20615;-80
2023/11/23 14:37:15;;;;;;;1.30;1.30;;;9.90;99.90;;;;;;10347688;28;20210;-77
2023/11/23 14:42:18;;;;;;;1.90;1.80;;;9.90;99.90;;;;;;10359204;28;20562;-80
2023/11/23 14:47:26;;;;;;;1.47;1.37;;;9.80;99.90;;;;;;10370264;28;20206;-79
2023/11/23 14:52:28;;;;;;;2.20;1.63;;;9.80;99.90;;;;;;10367459;28;20229;-80
2023/11/23 14:57:31;;;;;;;2.10;2.00;;;9.80;99.90;;;;;;10370104;28;20711;-79
2023/11/23 15:02:36;;;;;;;1.80;1.70;;;9.70;99.90;;;;;;10363543;28;20273;-77
2023/11/23 15:07:38;;;;;;;2.33;2.10;;;9.70;99.90;;;;;;10356897;28;20626;-77
2023/11/23 15:12:43;;;;;;;1.93;1.83;;;9.60;99.90;;;;;;10373273;28;20663;-79
2023/11/23 15:17:48;;;;;;;1.83;1.70;;;9.60;99.90;;;;;;10358152;28;20194;-79
2023/11/23 15:22:51;;;;;;;2.00;1.90;;;9.60;99.90;;;;;;10373711;28;20288;-79
2023/11/23 15:27:54;;;;;;;4.10;2.30;;;9.50;99.90;;;;;;10348946;28;20231;-80
2023/11/23 15:32:59;;;;;;;2.30;1.87;;;9.50;99.90;;;;;;10358257;28;20221;-79
2023/11/23 15:38:01;;;;;;;2.00;1.87;;;9.50;99.90;;;;;;10343868;28;20669;-80
2023/11/23 15:43:03;;;;;;;2.03;1.93;;;9.40;99.90;;;;;;10356017;28;20264;-80
2023/11/23 15:48:08;;;;;;;1.70;1.47;;;9.40;99.90;;;;;;10334308;28;20261;-80
2023/11/23 15:53:10;;;;;;;1.83;1.73;;;9.40;99.90;;;;;;10352794;28;20928;-78
2023/11/23 15:58:13;;;;;;;2.00;1.80;;;9.40;99.90;;;;;;10359290;28;20261;-80
2023/11/23 16:03:16;;;;;;;1.97;1.80;;;9.40;99.90;;;;;;10350954;28;20226;-80
2023/11/23 16:08:19;;;;;;;1.90;1.80;;;9.30;99.90;;;;;;10361631;28;20218;-78
2023/11/23 16:13:22;;;;;;;1.67;1.57;;;9.30;99.90;;;;;;10356486;28;20222;-79
2023/11/23 16:18:28;;;;;;;1.93;1.80;;;9.20;99.90;;;;;;10350768;28;20195;-79
2023/11/23 16:23:30;;;;;;;2.23;2.13;;;9.20;99.90;;;;;;10352615;28;20765;-80
2023/11/23 16:28:33;;;;;;;1.80;1.70;;;9.20;99.90;;;;;;10346624;28;20726;-78
2023/11/23 16:33:36;;;;;;;2.03;1.93;;;9.20;99.90;;;;;;10343067;28;20280;-78
2023/11/23 16:38:39;;;;;;;2.30;2.10;;;9.20;99.90;;;;;;10335088;28;20199;-77
2023/11/23 16:43:42;;;;;;;2.93;2.03;;;9.20;99.90;;;;;;10339705;28;20276;-77
2023/11/23 16:48:46;;;;;;;2.20;2.00;;;9.20;99.90;;;;;;10327985;28;20222;-78
2023/11/23 16:53:49;;;;;;;1.73;1.63;;;9.20;99.90;;;;;;10347596;28;20723;-77
2023/11/23 16:58:51;;;;;;;1.90;1.80;;;9.20;99.90;;;;;;10344242;28;20213;-78
2023/11/23 17:03:57;;;;;;;2.03;1.93;;;9.20;99.90;;;;;;10335479;28;20235;-78
2023/11/23 17:09:02;;;;;;;2.23;2.03;;;9.20;99.90;;;;;;10353292;28;20734;-78
2023/11/23 17:14:05;;;;;;;2.10;2.00;;;9.30;99.90;;;;;;10352030;28;20222;-77
2023/11/23 17:19:12;;;;;;;2.20;2.10;;;9.20;99.90;;;;;;10356482;28;20191;-78
2023/11/23 17:24:15;;;;;;;2.00;1.90;;;9.30;99.90;;;;;;10362761;28;20709;-79
2023/11/23 17:29:17;;;;;;;5.23;2.10;;;9.30;99.90;;;;;;10369635;28;20214;-78
2023/11/23 17:34:22;;;;;;;6.30;5.70;;;9.30;99.90;;;;;;10355254;28;20594;-79
2023/11/23 17:39:25;;;;;;;2.50;2.30;;;9.30;99.90;;;;;;10349784;28;20210;-79
2023/11/23 17:44:27;;;;;;;2.73;2.53;;;9.30;99.90;;;;;;10351733;28;20673;-79
2023/11/23 17:49:31;;;;;;;2.10;2.00;;;9.30;99.90;;;;;;10370845;28;20230;-79
2023/11/23 17:54:33;;;;;;;2.40;1.97;;;9.30;99.90;;;;;;10356880;28;20680;-79
2023/11/23 17:59:35;;;;;;;3.33;2.70;;;9.40;99.90;;;;;;10309770;28;20289;-79
2023/11/23 18:04:39;;;;;;;2.43;2.30;;;9.40;99.90;;;;;;10361664;28;20202;-79
2023/11/23 18:09:42;;;;;;;2.50;2.40;;;9.40;99.90;;;;;;10362498;28;20219;-78
2023/11/23 18:14:45;;;;;;;2.40;2.20;;;9.30;99.90;;;;;;10352639;28;20196;-79
2023/11/23 18:19:48;;;;;;;3.30;3.00;;;9.30;99.90;;;;;;10324819;28;20227;-80
2023/11/23 18:24:51;;;;;;;2.30;2.20;;;9.30;99.90;;;;;;10344211;28;20203;-78
2023/11/23 18:29:53;;;;;;;2.10;1.90;;;9.30;99.90;;;;;;10331468;28;20663;-79
2023/11/23 18:34:57;;;;;;;2.30;2.20;;;9.30;99.90;;;;;;10338214;28;20198;-78
2023/11/23 18:40:10;;;;;;;2.10;2.00;;;9.30;99.90;;;;;;10341638;28;20705;-77
2023/11/23 18:45:14;;;;;;;2.20;2.10;;;9.40;99.90;;;;;;10337005;28;20198;-79
2023/11/23 18:50:18;;;;;;;2.80;2.60;;;9.40;99.90;;;;;;10336804;28;20269;-77
2023/11/23 18:55:21;;;;;;;2.37;2.23;;;9.40;99.90;;;;;;10337269;28;20207;-77
2023/11/23 19:00:24;;;;;;;3.03;2.73;;;9.30;99.90;;;;;;10337726;28;20253;-76
2023/11/23 19:05:27;;;;;;;2.47;2.37;;;9.40;99.90;;;;;;10338991;28;20677;-77
2023/11/23 19:10:32;;;;;;;2.80;2.60;;;9.40;99.90;;;;;;10341440;28;20782;-76
2023/11/23 19:15:34;;;;;;;4.17;3.87;;;9.40;99.90;;;;;;10337324;28;20203;-75
2023/11/23 19:20:42;;;;;;;2.80;2.60;;;9.40;99.90;;;;;;10317985;28;20362;-77
2023/11/23 19:25:46;;;;;;;2.40;2.20;;;9.50;99.90;;;;;;10312717;28;20199;-77
2023/11/23 19:30:49;;;;;;;2.20;2.10;;;9.50;99.90;;;;;;10335030;28;20227;-77
2023/11/23 19:35:54;;;;;;;2.73;2.53;;;9.50;99.90;;;;;;10337956;28;20257;-77
2023/11/23 19:41:01;;;;;;;2.27;2.17;;;9.50;99.90;;;;;;10333899;28;20217;-77
2023/11/23 19:46:04;;;;;;;2.93;2.50;;;9.50;99.90;;;;;;10337216;28;20206;-77
2023/11/23 19:51:10;;;;;;;3.93;2.43;;;9.50;99.90;;;;;;10336936;28;20227;-78
2023/11/23 19:56:12;;;;;;;2.93;2.73;;;9.50;99.90;;;;;;10343151;28;20203;-76
2023/11/23 20:01:15;;;;;;;2.37;2.27;;;9.50;99.90;;;;;;10318838;28;20219;-77
2023/11/23 20:06:19;;;;;;;1.97;1.80;;;9.50;99.90;;;;;;10346871;28;20297;-78
2023/11/23 20:11:21;;;;;;;1.87;1.77;;;9.50;99.90;;;;;;10347002;28;20229;-77
2023/11/23 20:16:23;;;;;;;2.97;2.53;;;9.50;99.90;;;;;;10318281;28;20219;-77
2023/11/23 20:21:27;;;;;;;2.73;2.53;;;9.60;99.90;;;;;;10304285;28;20219;-78
2023/11/23 20:26:30;;;;;;;3.17;2.70;;;9.60;99.90;;;;;;10341294;28;20203;-77
2023/11/23 20:31:34;;;;;;;3.20;3.00;;;9.70;99.90;;;;;;10351647;28;20218;-77
2023/11/23 20:36:39;;;;;;;3.00;2.70;;;9.70;99.90;;;;;;10354944;28;20210;-78
2023/11/23 20:41:42;;;;;;;3.80;2.87;;;9.70;99.90;;;;;;10346790;28;20358;-78
2023/11/23 20:46:45;;;;;;;2.67;2.47;;;9.70;99.90;;;;;;10332472;28;20596;-78
2023/11/23 20:51:48;;;;;;;2.63;2.50;;;9.70;99.90;;;;;;10341314;28;20234;-77
2023/11/23 20:56:55;;;;;;;2.80;2.60;;;9.80;99.90;;;;;;10345526;28;20203;-78
2023/11/23 21:01:58;;;;;;;2.27;2.17;;;9.80;99.90;;;;;;10331427;28;20692;-77
2023/11/23 21:07:03;;;;;;;2.50;2.07;;;9.70;99.90;;;;;;10335406;28;20280;-78
2023/11/23 21:12:06;;;;;;;2.50;2.30;;;9.70;99.90;;;;;;10333418;28;20296;-78
2023/11/23 21:17:10;;;;;;;2.33;2.17;;;9.80;99.90;;;;;;10302111;28;20211;-78
2023/11/23 21:22:14;;;;;;;2.03;1.93;;;9.80;99.90;;;;;;10343341;28;20572;-78
2023/11/23 21:27:16;;;;;;;3.40;2.60;;;9.80;99.90;;;;;;10342515;28;20199;-79
2023/11/23 21:32:19;;;;;;;2.20;2.10;;;9.90;99.90;;;;;;10345868;28;20603;-78
2023/11/23 21:37:22;;;;;;;2.13;2.03;;;10.00;99.90;;;;;;10347686;28;20651;-78
2023/11/23 21:42:25;;;;;;;6.90;2.50;;;10.00;99.90;;;;;;10339135;28;20214;-78
2023/11/23 21:47:28;;;;;;;2.40;2.20;;;10.00;99.90;;;;;;10353562;28;20210;-78
2023/11/23 21:52:33;;;;;;;2.23;2.13;;;10.00;99.90;;;;;;10344591;28;20237;-78
2023/11/23 21:57:36;;;;;;;1.93;1.77;;;10.00;99.90;;;;;;10358904;28;20209;-78
2023/11/23 22:02:40;;;;;;;2.03;1.93;;;10.00;99.90;;;;;;10347000;28;20226;-78
2023/11/23 22:07:43;;;;;;;1.70;1.60;;;10.10;99.90;;;;;;10361257;28;20706;-78
2023/11/23 22:12:46;;;;;;;2.17;1.87;;;10.10;99.90;;;;;;10356570;28;20223;-77
2023/11/23 22:17:50;;;;;;;1.60;1.50;;;10.10;99.90;;;;;;10358409;28;20206;-78
2023/11/23 22:22:55;;;;;;;2.13;1.70;;;10.10;99.90;;;;;;10360402;28;20214;-78
2023/11/23 22:27:58;;;;;;;1.70;1.60;;;10.10;99.90;;;;;;10363833;28;20202;-78
2023/11/23 22:33:02;;;;;;;2.07;1.93;;;10.10;99.90;;;;;;10365112;28;20253;-78
2023/11/23 22:38:07;;;;;;;2.00;1.90;;;10.00;99.90;;;;;;10356176;28;20202;-78
2023/11/23 22:43:10;;;;;;;1.83;1.73;;;10.00;99.90;;;;;;10367105;28;20218;-78
2023/11/23 22:48:13;;;;;;;2.30;2.20;;;10.00;99.90;;;;;;10354390;28;20203;-78
2023/11/23 22:53:16;;;;;;;2.10;2.00;;;10.00;99.90;;;;;;10351153;28;20265;-77
2023/11/23 22:58:19;;;;;;;2.10;2.00;;;10.00;99.90;;;;;;10334181;28;20614;-78
2023/11/23 23:03:21;;;;;;;1.97;1.87;;;10.00;99.90;;;;;;10357546;28;20218;-79
2023/11/23 23:08:25;;;;;;;1.90;1.80;;;10.00;99.90;;;;;;10371666;28;20210;-78
2023/11/23 23:13:27;;;;;;;2.07;1.97;;;10.00;99.90;;;;;;10355106;28;20238;-79
2023/11/23 23:18:30;;;;;;;1.87;1.70;;;10.00;99.90;;;;;;10325875;28;20207;-78
2023/11/23 23:23:33;;;;;;;1.67;1.57;;;10.00;99.90;;;;;;10328975;28;20230;-78
2023/11/23 23:28:36;;;;;;;2.13;1.90;;;10.00;99.90;;;;;;10359513;28;20194;-78
2023/11/23 23:33:38;;;;;;;1.60;1.60;;;10.00;99.90;;;;;;10351946;28;20218;-78
2023/11/23 23:38:42;;;;;;;2.13;2.03;;;10.00;99.90;;;;;;10359195;28;20213;-78
2023/11/23 23:43:45;;;;;;;2.13;1.93;;;10.00;99.90;;;;;;10360880;28;20765;-78
2023/11/23 23:48:48;;;;;;;2.20;2.10;;;9.80;99.90;;;;;;10317666;28;20203;-79
2023/11/23 23:53:53;;;;;;;2.17;2.07;;;9.70;99.90;;;;;;10330561;28;20232;-78
2023/11/23 23:58:56;;;;;;;2.30;2.10;;;9.60;99.90;;;;;;10334876;28;20717;-78
